Time;durP1;ratioP1;P1;durP2;ratioP2;P2;SDS_P1;SDS_P2;PMS_P1;PMS_P2;Temp;Humidity;BMP_temperature;BMP_pressure;BME280_temperature;BME280_humidity;BME280_pressure;Samples;Min_cycle;Max_cycle;Signal;HPM_P1;HPM_P2
2023/03/18 00:01:52;;;;;;;13.30;6.10;;;16.20;99.90;;;;;;5046894;28;20254;-32
2023/03/18 00:04:23;;;;;;;10.30;6.20;;;16.20;99.90;;;;;;5046576;28;20201;-32
2023/03/18 00:06:50;;;;;;;10.18;5.93;;;16.10;99.90;;;;;;5045104;28;20200;-32
2023/03/18 00:09:21;;;;;;;12.20;6.15;;;16.10;99.90;;;;;;5046889;28;20200;-32
2023/03/18 00:11:48;;;;;;;12.17;6.80;;;16.10;99.90;;;;;;5046643;28;20690;-32
2023/03/18 00:14:19;;;;;;;10.90;6.95;;;16.10;99.90;;;;;;5044987;28;20741;-32
2023/03/18 00:16:50;;;;;;;11.43;6.70;;;16.00;99.90;;;;;;5045147;28;20200;-32
2023/03/18 00:19:20;;;;;;;12.18;6.45;;;16.00;99.90;;;;;;5044973;28;20223;-32
2023/03/18 00:21:53;;;;;;;9.70;6.55;;;15.90;99.90;;;;;;5046314;28;20295;-32
2023/03/18 00:24:20;;;;;;;9.27;6.45;;;15.90;99.90;;;;;;5046407;28;20584;-32
2023/03/18 00:26:50;;;;;;;10.50;6.00;;;15.90;99.90;;;;;;5044446;28;20204;-32
2023/03/18 00:29:20;;;;;;;8.68;6.43;;;15.80;99.90;;;;;;5045905;28;20238;-32
2023/03/18 00:31:56;;;;;;;10.30;7.20;;;15.80;99.90;;;;;;5045496;28;20203;-32
2023/03/18 00:34:26;;;;;;;9.50;6.22;;;15.80;99.90;;;;;;5045570;28;20192;-32
2023/03/18 00:36:59;;;;;;;11.23;6.38;;;15.70;99.90;;;;;;5044278;28;20259;-32
2023/03/18 00:39:31;;;;;;;10.50;6.90;;;15.70;99.90;;;;;;5045647;28;20220;-32
2023/03/18 00:42:09;;;;;;;11.35;6.90;;;15.70;99.90;;;;;;5045579;28;20203;-32
2023/03/18 00:44:37;;;;;;;10.02;6.78;;;15.70;99.90;;;;;;5044011;28;20273;-32
2023/03/18 00:47:10;;;;;;;10.53;7.03;;;15.70;99.90;;;;;;5045920;28;20214;-32
2023/03/18 00:49:39;;;;;;;11.90;7.50;;;15.70;99.90;;;;;;5045392;28;20291;-32
2023/03/18 00:52:09;;;;;;;11.00;7.05;;;15.70;99.90;;;;;;5045404;28;20239;-32
2023/03/18 00:54:36;;;;;;;11.32;7.30;;;15.60;99.90;;;;;;5059801;28;20246;-32
2023/03/18 00:57:05;;;;;;;12.07;7.50;;;15.60;99.90;;;;;;5045356;28;20570;-32
2023/03/18 00:59:39;;;;;;;8.75;6.95;;;15.60;99.90;;;;;;5043746;28;20204;-32
2023/03/18 01:02:09;;;;;;;14.25;7.45;;;15.60;99.90;;;;;;5045381;28;20520;-32
2023/03/18 01:04:38;;;;;;;12.02;7.45;;;15.60;99.90;;;;;;5045313;28;20713;-32
2023/03/18 01:07:12;;;;;;;12.60;7.47;;;15.60;99.90;;;;;;5043807;28;20266;-32
2023/03/18 01:09:42;;;;;;;10.93;7.27;;;15.60;99.90;;;;;;5045491;28;20295;-32
2023/03/18 01:12:15;;;;;;;12.18;7.47;;;15.50;99.90;;;;;;5046269;28;20251;-32
2023/03/18 01:14:43;;;;;;;11.13;7.07;;;15.50;99.90;;;;;;5047562;28;20212;-32
2023/03/18 01:17:10;;;;;;;10.98;7.07;;;15.50;99.90;;;;;;5049286;28;20218;-32
2023/03/18 01:19:41;;;;;;;10.40;7.20;;;15.50;99.90;;;;;;5063877;28;20670;-32
2023/03/18 01:22:08;;;;;;;8.63;6.70;;;15.50;99.90;;;;;;5048654;28;20231;-32
2023/03/18 01:24:38;;;;;;;10.27;7.73;;;15.50;99.90;;;;;;5047757;28;20625;-32
2023/03/18 01:27:07;;;;;;;11.48;7.25;;;15.40;99.90;;;;;;5049016;28;20199;-32
2023/03/18 01:29:35;;;;;;;12.03;7.50;;;15.40;99.90;;;;;;5049108;28;20295;-32
2023/03/18 01:32:04;;;;;;;10.75;7.35;;;15.40;99.90;;;;;;5048865;28;20898;-32
2023/03/18 01:34:37;;;;;;;12.02;7.25;;;15.40;99.90;;;;;;5048948;28;20219;-32
2023/03/18 01:37:04;;;;;;;13.88;7.35;;;15.40;99.90;;;;;;5047541;28;20204;-32
2023/03/18 01:39:33;;;;;;;11.33;7.90;;;15.40;99.90;;;;;;5049083;28;20227;-32
2023/03/18 01:42:02;;;;;;;11.30;7.60;;;15.40;99.90;;;;;;5049038;28;20209;-32
2023/03/18 01:44:30;;;;;;;11.07;7.68;;;15.40;99.90;;;;;;5063999;28;20220;-31
2023/03/18 01:46:57;;;;;;;11.43;8.02;;;15.30;99.90;;;;;;5048673;28;20263;-32
2023/03/18 01:49:24;;;;;;;11.40;8.13;;;15.30;99.90;;;;;;5048897;28;20209;-31
2023/03/18 01:51:56;;;;;;;10.55;7.90;;;15.30;99.90;;;;;;5048894;28;20188;-31
2023/03/18 01:54:28;;;;;;;13.95;9.18;;;15.30;99.90;;;;;;5047313;28;20228;-32
2023/03/18 01:56:56;;;;;;;10.73;8.10;;;15.20;99.90;;;;;;5048780;28;20295;-32
2023/03/18 01:59:27;;;;;;;11.38;8.13;;;15.20;99.90;;;;;;5062728;28;20227;-32
2023/03/18 02:02:08;;;;;;;10.15;7.93;;;15.20;99.90;;;;;;5047183;28;20283;-32
2023/03/18 02:04:41;;;;;;;14.48;9.10;;;15.20;99.90;;;;;;5047130;28;20675;-31
2023/03/18 02:07:17;;;;;;;11.57;8.32;;;15.20;99.90;;;;;;5048183;28;20212;-32
2023/03/18 02:09:46;;;;;;;13.15;8.82;;;15.20;99.90;;;;;;5048418;28;20203;-32
2023/03/18 02:12:18;;;;;;;14.37;8.43;;;15.20;99.90;;;;;;5048611;28;20226;-32
2023/03/18 02:14:45;;;;;;;11.17;8.43;;;15.20;99.90;;;;;;5048167;28;20219;-32
2023/03/18 02:17:18;;;;;;;11.50;8.52;;;15.10;99.90;;;;;;5047948;28;20218;-32
2023/03/18 02:20:16;;;;;;;12.80;8.47;;;15.10;99.90;;;;;;5047682;28;20622;-32
2023/03/18 02:22:53;;;;;;;12.47;9.27;;;15.10;99.90;;;;;;5045130;28;20227;-32
2023/03/18 02:25:42;;;;;;;13.05;8.98;;;15.10;99.90;;;;;;5048400;28;20212;-32
2023/03/18 02:28:17;;;;;;;12.88;9.63;;;15.10;99.90;;;;;;5048293;28;20223;-32
2023/03/18 02:30:47;;;;;;;13.13;8.85;;;15.10;99.90;;;;;;5045906;28;20720;-32
2023/03/18 02:33:20;;;;;;;11.00;8.90;;;15.10;99.90;;;;;;5044937;28;20258;-32
2023/03/18 02:35:54;;;;;;;11.18;9.02;;;15.10;99.90;;;;;;5046578;28;20310;-32
2023/03/18 02:38:27;;;;;;;11.23;8.38;;;15.10;99.90;;;;;;5046738;28;20222;-32
2023/03/18 02:40:54;;;;;;;12.30;8.63;;;15.10;99.90;;;;;;5048180;28;20220;-32
2023/03/18 02:43:27;;;;;;;16.58;9.57;;;15.10;99.90;;;;;;5048020;28;20582;-32
2023/03/18 02:46:32;;;;;;;11.27;9.85;;;15.10;99.90;;;;;;5047887;28;20227;-32
2023/03/18 02:49:03;;;;;;;11.00;9.13;;;15.10;99.90;;;;;;5046386;28;20295;-32
2023/03/18 02:51:30;;;;;;;12.38;8.70;;;15.00;99.90;;;;;;5046479;28;20199;-32
2023/03/18 02:54:04;;;;;;;13.63;9.55;;;15.00;99.90;;;;;;5046508;28;20770;-32
2023/03/18 02:56:34;;;;;;;12.45;8.93;;;15.00;99.90;;;;;;5046214;28;20196;-32
2023/03/18 02:59:07;;;;;;;13.80;9.55;;;15.00;99.90;;;;;;5047944;28;20227;-31
2023/03/18 03:01:37;;;;;;;15.02;9.48;;;15.00;99.90;;;;;;5046203;28;20196;-32
2023/03/18 03:04:09;;;;;;;15.48;9.43;;;15.00;99.90;;;;;;5047291;28;20264;-32
2023/03/18 03:06:36;;;;;;;14.85;10.35;;;15.00;99.90;;;;;;5047723;28;20517;-32
2023/03/18 03:09:07;;;;;;;12.60;9.10;;;15.00;99.90;;;;;;5047448;28;20212;-32
2023/03/18 03:11:35;;;;;;;15.55;10.05;;;15.00;99.90;;;;;;5047957;28;20276;-32
2023/03/18 03:14:08;;;;;;;14.40;9.80;;;15.00;99.90;;;;;;5047514;28;20211;-32
2023/03/18 03:16:39;;;;;;;12.63;8.95;;;15.00;99.90;;;;;;5047247;28;20298;-32
2023/03/18 03:19:11;;;;;;;12.77;9.77;;;15.00;99.90;;;;;;5047377;28;20218;-32
2023/03/18 03:21:41;;;;;;;12.65;9.25;;;15.00;99.90;;;;;;5046736;28;20208;-32
2023/03/18 03:24:09;;;;;;;14.60;9.77;;;14.90;99.90;;;;;;5047669;28;20255;-32
2023/03/18 03:26:39;;;;;;;11.23;8.37;;;14.90;99.90;;;;;;5047266;28;20255;-32
2023/03/18 03:29:06;;;;;;;12.88;9.05;;;14.90;99.90;;;;;;5047408;28;20192;-32
2023/03/18 03:31:34;;;;;;;13.30;8.50;;;14.90;99.90;;;;;;5047183;28;20204;-32
2023/03/18 03:34:01;;;;;;;12.40;8.65;;;14.90;99.90;;;;;;5044904;28;20262;-32
2023/03/18 03:36:30;;;;;;;12.27;8.60;;;14.90;99.90;;;;;;5045169;28;20236;-32
2023/03/18 03:39:01;;;;;;;13.82;8.90;;;14.80;99.90;;;;;;5044916;28;20259;-32
2023/03/18 03:41:28;;;;;;;9.65;7.82;;;14.80;99.90;;;;;;5045157;28;20255;-33
2023/03/18 03:43:58;;;;;;;9.90;8.17;;;14.80;99.90;;;;;;5045071;28;20660;-33
2023/03/18 03:46:30;;;;;;;10.20;8.03;;;14.80;99.90;;;;;;5046837;28;20563;-33
2023/03/18 03:48:57;;;;;;;10.33;7.73;;;14.80;99.90;;;;;;5046805;28;20218;-33
2023/03/18 03:51:28;;;;;;;9.60;7.80;;;14.70;99.90;;;;;;5044850;28;20200;-33
2023/03/18 03:53:57;;;;;;;10.40;7.63;;;14.70;99.90;;;;;;5028686;28;20232;-33
2023/03/18 03:56:27;;;;;;;9.43;7.50;;;14.70;99.90;;;;;;5046235;28;20207;-33
2023/03/18 03:58:54;;;;;;;10.53;7.13;;;14.70;99.90;;;;;;5045839;28;20211;-33
2023/03/18 04:01:21;;;;;;;7.72;6.90;;;14.70;99.90;;;;;;5046111;28;20203;-33
2023/03/18 04:03:51;;;;;;;9.00;6.47;;;14.60;99.90;;;;;;5044188;28;20795;-33
2023/03/18 04:06:23;;;;;;;9.57;6.60;;;14.60;99.90;;;;;;5044394;28;20422;-33
2023/03/18 04:08:52;;;;;;;9.00;6.97;;;14.60;99.90;;;;;;5044184;28;20215;-33
2023/03/18 04:11:21;;;;;;;7.33;6.20;;;14.50;99.90;;;;;;5044734;28;20223;-33
2023/03/18 04:13:53;;;;;;;7.50;6.50;;;14.50;99.90;;;;;;5044334;28;20221;-33
2023/03/18 04:16:22;;;;;;;9.43;6.33;;;14.50;99.90;;;;;;5046261;28;20631;-33
2023/03/18 04:18:52;;;;;;;8.77;6.83;;;14.40;99.90;;;;;;5045884;28;20212;-33
2023/03/18 04:21:24;;;;;;;9.55;7.20;;;14.40;99.90;;;;;;5044122;28;20694;-33
2023/03/18 04:23:53;;;;;;;10.17;6.93;;;14.40;99.90;;;;;;5045975;28;20327;-33
2023/03/18 04:26:27;;;;;;;8.77;7.00;;;14.30;99.90;;;;;;5044148;28;20214;-33
2023/03/18 04:28:54;;;;;;;9.90;7.23;;;14.30;99.90;;;;;;5046025;28;20234;-33
2023/03/18 04:31:24;;;;;;;8.50;6.90;;;14.20;99.90;;;;;;5028124;28;20211;-30
2023/03/18 04:33:54;;;;;;;8.37;6.77;;;14.20;99.90;;;;;;5045755;28;20211;-31
2023/03/18 04:36:28;;;;;;;8.87;7.17;;;14.20;99.90;;;;;;5045613;28;20204;-32
2023/03/18 04:38:56;;;;;;;9.60;7.27;;;14.10;99.90;;;;;;5045788;28;20299;-32
2023/03/18 04:41:25;;;;;;;8.07;6.90;;;14.10;99.90;;;;;;5045584;28;20196;-32
2023/03/18 04:43:53;;;;;;;8.83;7.47;;;14.10;99.90;;;;;;5045897;28;20220;-32
2023/03/18 04:46:28;;;;;;;9.73;7.17;;;14.00;99.90;;;;;;5046722;28;20212;-32
2023/03/18 04:48:58;;;;;;;8.87;7.03;;;14.00;99.90;;;;;;5049975;28;20204;-32
2023/03/18 04:51:30;;;;;;;9.80;7.40;;;14.00;99.90;;;;;;5048105;28;20291;-32
2023/03/18 04:53:57;;;;;;;10.60;7.93;;;13.90;99.90;;;;;;5047904;28;20714;-33
2023/03/18 04:56:30;;;;;;;9.97;7.77;;;13.90;99.90;;;;;;5047891;28;20226;-32
2023/03/18 04:58:59;;;;;;;11.17;8.20;;;13.90;99.90;;;;;;5050504;28;20202;-32
2023/03/18 05:01:28;;;;;;;11.00;7.67;;;13.80;99.90;;;;;;5048611;28;20206;-32
2023/03/18 05:03:56;;;;;;;10.23;7.53;;;13.80;99.90;;;;;;5048760;28;20667;-31
2023/03/18 05:06:26;;;;;;;9.30;7.63;;;13.80;99.90;;;;;;5048464;28;20198;-31
2023/03/18 05:08:58;;;;;;;9.40;7.93;;;13.70;99.90;;;;;;5048553;28;20742;-34
2023/03/18 05:11:28;;;;;;;11.57;8.27;;;13.70;99.90;;;;;;5049986;28;20196;-31
2023/03/18 05:13:56;;;;;;;10.23;8.83;;;13.70;99.90;;;;;;5049912;28;20242;-31
2023/03/18 05:16:28;;;;;;;8.90;7.93;;;13.60;99.90;;;;;;5048261;28;20238;-31
2023/03/18 05:18:58;;;;;;;10.43;7.93;;;13.60;99.90;;;;;;5048500;28;20277;-31
2023/03/18 05:21:28;;;;;;;11.07;8.00;;;13.60;99.90;;;;;;5049573;28;20674;-32
2023/03/18 05:23:56;;;;;;;9.90;8.20;;;13.60;99.90;;;;;;5047694;28;20227;-31
2023/03/18 05:26:25;;;;;;;11.30;8.73;;;13.50;99.90;;;;;;5047804;28;20216;-32
2023/03/18 05:28:56;;;;;;;12.83;9.33;;;13.50;99.90;;;;;;5049660;28;20730;-31
2023/03/18 05:31:23;;;;;;;10.70;8.97;;;13.40;99.90;;;;;;5047802;28;20192;-31
2023/03/18 05:33:53;;;;;;;10.67;8.87;;;13.40;99.90;;;;;;5048336;28;20215;-31
2023/03/18 05:36:21;;;;;;;12.97;8.83;;;13.40;99.90;;;;;;5047935;28;20679;-32
2023/03/18 05:38:50;;;;;;;10.33;8.33;;;13.40;99.90;;;;;;5048081;28;20288;-31
2023/03/18 05:41:20;;;;;;;11.50;9.13;;;13.40;99.90;;;;;;5047611;28;20741;-32
2023/03/18 05:43:49;;;;;;;9.70;8.60;;;13.40;99.90;;;;;;5047736;28;20226;-31
2023/03/18 05:46:17;;;;;;;12.40;9.40;;;13.40;99.90;;;;;;5049112;28;20212;-31
2023/03/18 05:48:46;;;;;;;14.20;9.70;;;13.40;99.90;;;;;;5049197;28;20212;-31
2023/03/18 05:51:13;;;;;;;14.27;9.07;;;13.40;99.90;;;;;;5048897;28;20667;-32
2023/03/18 05:53:43;;;;;;;12.23;10.00;;;13.40;99.90;;;;;;5048823;28;20616;-32
2023/03/18 05:56:11;;;;;;;11.00;9.50;;;13.40;99.90;;;;;;5031192;28;20653;-32
2023/03/18 05:58:39;;;;;;;11.37;9.57;;;13.40;99.90;;;;;;5048377;28;20315;-32
2023/03/18 06:01:12;;;;;;;10.20;9.17;;;13.40;99.90;;;;;;5048575;28;20197;-32
2023/03/18 06:03:40;;;;;;;10.20;8.90;;;13.40;99.90;;;;;;5048856;28;20236;-32
2023/03/18 06:06:07;;;;;;;11.37;9.57;;;13.40;99.90;;;;;;5047450;28;20192;-32
2023/03/18 06:08:35;;;;;;;10.47;8.00;;;13.40;99.90;;;;;;5047355;28;20570;-32
2023/03/18 06:11:02;;;;;;;10.93;8.67;;;13.40;99.90;;;;;;5047128;28;20883;-32
2023/03/18 06:13:32;;;;;;;12.17;9.40;;;13.40;99.90;;;;;;5048982;28;20684;-32
2023/03/18 06:16:02;;;;;;;11.43;9.17;;;13.40;99.90;;;;;;5048977;28;20203;-32
2023/03/18 06:18:34;;;;;;;9.90;8.77;;;13.40;99.90;;;;;;5048152;28;20205;-32
2023/03/18 06:21:05;;;;;;;10.80;8.70;;;13.40;99.90;;;;;;5048066;28;20222;-32
2023/03/18 06:23:38;;;;;;;9.97;8.47;;;13.40;99.90;;;;;;5046086;28;20200;-32
2023/03/18 06:26:07;;;;;;;10.90;8.77;;;13.40;99.90;;;;;;5046334;28;20693;-32
2023/03/18 06:28:37;;;;;;;10.80;8.77;;;13.40;99.90;;;;;;5047786;28;20636;-32
2023/03/18 06:31:10;;;;;;;11.27;8.97;;;13.40;99.90;;;;;;5047791;28;20223;-32
2023/03/18 06:33:37;;;;;;;10.33;8.57;;;13.40;99.90;;;;;;5047820;28;20203;-32
2023/03/18 06:36:05;;;;;;;12.57;9.00;;;13.40;99.90;;;;;;5046519;28;20201;-32
2023/03/18 06:38:34;;;;;;;19.67;10.60;;;13.40;99.90;;;;;;5046248;28;20208;-32
2023/03/18 06:41:01;;;;;;;12.77;9.57;;;13.40;99.90;;;;;;5046086;28;20231;-32
2023/03/18 06:43:32;;;;;;;11.83;9.23;;;13.40;99.90;;;;;;5045906;28;20192;-31
2023/03/18 06:46:01;;;;;;;13.47;8.90;;;13.40;99.90;;;;;;5046012;28;20283;-32
2023/03/18 06:48:35;;;;;;;18.67;9.73;;;13.40;99.90;;;;;;5029875;28;20644;-32
2023/03/18 06:51:05;;;;;;;18.83;8.47;;;13.40;99.90;;;;;;5045650;28;20196;-32
2023/03/18 06:53:36;;;;;;;14.00;7.93;;;13.40;99.90;;;;;;5045674;28;20737;-32
2023/03/18 06:56:12;;;;;;;16.53;9.93;;;13.40;99.90;;;;;;5047543;28;20767;-32
2023/03/18 06:58:41;;;;;;;16.97;8.83;;;13.40;99.90;;;;;;5045971;28;20200;-32
2023/03/18 07:01:13;;;;;;;16.30;8.23;;;13.40;99.90;;;;;;5047302;28;20295;-32
2023/03/18 07:03:41;;;;;;;14.00;8.53;;;13.40;99.90;;;;;;5047088;28;20200;-32
2023/03/18 07:06:11;;;;;;;11.10;8.00;;;13.50;99.90;;;;;;5047087;28;20769;-32
2023/03/18 07:08:40;;;;;;;23.80;9.23;;;13.50;99.90;;;;;;5044795;28;20200;-32
2023/03/18 07:11:07;;;;;;;12.80;7.57;;;13.50;99.90;;;;;;5045367;28;20192;-32
2023/03/18 07:13:37;;;;;;;9.93;7.33;;;13.50;99.90;;;;;;5045321;28;20283;-32
2023/03/18 07:16:08;;;;;;;18.33;8.93;;;13.50;99.90;;;;;;5046709;28;20606;-32
2023/03/18 07:18:41;;;;;;;15.27;7.50;;;13.50;99.90;;;;;;5046875;28;20254;-32
2023/03/18 07:21:13;;;;;;;27.07;8.37;;;13.60;99.90;;;;;;5045077;28;20315;-32
2023/03/18 07:23:46;;;;;;;16.33;7.00;;;13.60;99.90;;;;;;5046662;28;20792;-32
2023/03/18 07:26:13;;;;;;;13.27;6.93;;;13.60;99.90;;;;;;5046822;28;20224;-32
2023/03/18 07:28:45;;;;;;;9.65;6.43;;;13.60;99.90;;;;;;5046607;28;20279;-32
2023/03/18 07:31:12;;;;;;;10.87;6.80;;;13.70;99.90;;;;;;5044997;28;20232;-32
2023/03/18 07:33:42;;;;;;;8.90;6.07;;;13.70;99.90;;;;;;5045493;28;20208;-32
2023/03/18 07:36:15;;;;;;;9.60;6.00;;;13.70;99.90;;;;;;5046389;28;20341;-32
2023/03/18 07:38:47;;;;;;;7.93;5.30;;;13.80;99.90;;;;;;5044779;28;20253;-32
2023/03/18 07:41:16;;;;;;;9.47;6.23;;;13.80;99.90;;;;;;5046673;28;20208;-32
2023/03/18 07:43:44;;;;;;;8.60;5.87;;;13.90;99.90;;;;;;5044617;28;20197;-32
2023/03/18 07:46:13;;;;;;;10.20;5.80;;;13.90;99.90;;;;;;5044422;28;20192;-32
2023/03/18 07:48:45;;;;;;;13.00;6.07;;;14.00;99.90;;;;;;5044865;28;20215;-32
2023/03/18 07:51:17;;;;;;;6.93;5.53;;;14.00;99.90;;;;;;5045515;28;20932;-32
2023/03/18 07:53:49;;;;;;;9.97;5.90;;;14.10;99.90;;;;;;5046064;28;20718;-32
2023/03/18 07:56:16;;;;;;;7.60;5.90;;;14.10;99.90;;;;;;5046659;28;20235;-32
2023/03/18 07:58:46;;;;;;;8.80;6.03;;;14.20;99.90;;;;;;5045160;28;20212;-32
2023/03/18 08:01:17;;;;;;;9.40;5.70;;;14.20;99.90;;;;;;5045155;28;20219;-32
2023/03/18 08:03:45;;;;;;;7.67;4.90;;;14.30;99.90;;;;;;5046139;28;20220;-32
2023/03/18 08:06:16;;;;;;;5.87;5.03;;;14.40;99.90;;;;;;5046412;28;20244;-32
2023/03/18 08:08:45;;;;;;;6.53;5.00;;;14.40;99.90;;;;;;5046271;28;20195;-32
2023/03/18 08:11:13;;;;;;;9.00;5.60;;;14.50;99.90;;;;;;5044601;28;20208;-32
2023/03/18 08:13:43;;;;;;;7.13;4.70;;;14.60;99.90;;;;;;5044630;28;20201;-32
2023/03/18 08:16:11;;;;;;;8.48;5.25;;;14.60;99.90;;;;;;5046432;28;20239;-32
2023/03/18 08:18:38;;;;;;;5.70;4.97;;;14.60;99.90;;;;;;5046237;28;20526;-32
2023/03/18 08:21:06;;;;;;;7.28;5.07;;;14.70;99.90;;;;;;5044433;28;20675;-32
2023/03/18 08:23:34;;;;;;;7.93;4.90;;;14.70;99.90;;;;;;5044504;28;20227;-32
2023/03/18 08:26:02;;;;;;;6.40;4.87;;;14.70;99.90;;;;;;5045896;28;20788;-32
2023/03/18 08:28:32;;;;;;;6.50;4.82;;;14.80;99.90;;;;;;5044712;28;20271;-31
2023/03/18 08:31:03;;;;;;;9.70;5.00;;;14.80;99.90;;;;;;5045920;28;20212;-32
2023/03/18 08:33:31;;;;;;;9.23;5.70;;;14.80;99.90;;;;;;5044500;28;20208;-32
2023/03/18 08:35:58;;;;;;;7.07;4.90;;;14.90;99.90;;;;;;5046173;28;20477;-31
2023/03/18 08:38:28;;;;;;;5.50;4.37;;;15.00;99.90;;;;;;5044669;28;20250;-32
2023/03/18 08:41:02;;;;;;;6.80;4.73;;;15.10;99.90;;;;;;5046351;28;20224;-31
2023/03/18 08:43:30;;;;;;;11.57;4.50;;;15.10;99.90;;;;;;5044385;28;20738;-30
2023/03/18 08:45:57;;;;;;;8.15;4.28;;;15.20;99.90;;;;;;5045655;28;20311;-30
2023/03/18 08:48:24;;;;;;;5.68;3.90;;;15.30;99.90;;;;;;5045775;28;20535;-30
2023/03/18 08:50:57;;;;;;;10.23;4.25;;;15.30;99.90;;;;;;5045716;28;20196;-30
2023/03/18 08:53:26;;;;;;;6.43;4.07;;;15.40;99.90;;;;;;5045457;28;20369;-30
2023/03/18 08:55:56;;;;;;;6.80;4.17;;;15.50;99.90;;;;;;5044465;28;20258;-31
2023/03/18 08:58:23;;;;;;;8.43;4.00;;;15.60;99.90;;;;;;5045606;28;20207;-30
2023/03/18 09:00:55;;;;;;;8.73;3.95;;;15.60;99.90;;;;;;5027995;28;20214;-31
2023/03/18 09:03:23;;;;;;;7.70;3.50;;;15.70;99.90;;;;;;5046114;28;20207;-30
2023/03/18 09:05:54;;;;;;;5.38;3.20;;;15.80;99.90;;;;;;5044236;28;20230;-30
2023/03/18 09:08:22;;;;;;;5.35;3.72;;;15.80;99.90;;;;;;5044860;28;20224;-30
2023/03/18 09:10:52;;;;;;;5.40;3.60;;;15.90;99.90;;;;;;5046016;28;20246;-30
2023/03/18 09:13:23;;;;;;;5.20;3.30;;;16.00;99.90;;;;;;5043964;28;20203;-31
2023/03/18 09:15:54;;;;;;;5.57;3.00;;;16.00;99.90;;;;;;5043769;28;20204;-30
2023/03/18 09:18:27;;;;;;;4.30;3.05;;;16.10;99.90;;;;;;5045493;28;20220;-30
2023/03/18 09:20:54;;;;;;;4.95;2.90;;;16.10;99.90;;;;;;5045200;28;20210;-30
2023/03/18 09:23:21;;;;;;;7.68;3.92;;;16.20;99.90;;;;;;5044943;28;20566;-31
2023/03/18 09:25:53;;;;;;;20.95;4.90;;;16.20;99.90;;;;;;5044734;28;20409;-30
2023/03/18 09:28:23;;;;;;;6.20;3.70;;;16.20;99.90;;;;;;5045056;28;20223;-31
2023/03/18 09:30:53;;;;;;;5.78;3.25;;;16.30;99.90;;;;;;5043651;28;20266;-30
2023/03/18 09:33:23;;;;;;;6.72;3.30;;;16.30;99.90;;;;;;5047406;28;20188;-30
2023/03/18 09:35:50;;;;;;;4.25;2.80;;;16.30;99.90;;;;;;5047002;28;20259;-31
2023/03/18 09:38:23;;;;;;;6.37;2.80;;;16.30;99.90;;;;;;5048902;28;20204;-30
2023/03/18 09:41:08;;;;;;;7.15;3.55;;;16.30;99.90;;;;;;5047572;28;20204;-31
2023/03/18 09:43:59;;;;;;;4.63;2.90;;;16.40;99.90;;;;;;5049208;28;20239;-31
2023/03/18 09:47:12;;;;;;;5.93;3.22;;;16.40;99.90;;;;;;5049098;28;20314;-31
2023/03/18 09:49:53;;;;;;;5.93;3.10;;;16.40;99.90;;;;;;5049004;28;20208;-30
2023/03/18 09:52:38;;;;;;;3.80;2.50;;;16.30;99.90;;;;;;5047286;28;20200;-30
2023/03/18 09:55:11;;;;;;;4.20;2.90;;;16.30;99.90;;;;;;5047310;28;20271;-31
2023/03/18 09:57:42;;;;;;;4.07;2.90;;;16.40;99.90;;;;;;5049180;28;20245;-31
2023/03/18 10:00:31;;;;;;;3.47;2.33;;;16.30;99.90;;;;;;5047269;28;20232;-31
2023/03/18 10:03:26;;;;;;;3.67;2.95;;;16.40;99.90;;;;;;5047266;28;20586;-30
2023/03/18 10:06:06;;;;;;;5.45;2.67;;;16.40;99.90;;;;;;5043031;28;20240;-32
2023/03/18 10:08:57;;;;;;;2.90;2.45;;;16.40;99.90;;;;;;5048490;28;20362;-31
2023/03/18 10:11:25;;;;;;;3.90;2.40;;;16.40;99.90;;;;;;5048489;28;20283;-31
2023/03/18 10:14:20;;;;;;;2.92;2.25;;;16.40;99.90;;;;;;5048904;28;20258;-31
2023/03/18 10:17:21;;;;;;;4.97;2.33;;;16.40;99.90;;;;;;5048385;28;20311;-31
2023/03/18 10:20:04;;;;;;;4.72;2.60;;;16.40;99.90;;;;;;5015234;28;20294;-31
2023/03/18 10:22:43;;;;;;;6.55;2.53;;;16.40;99.90;;;;;;5048396;28;20200;-31
2023/03/18 10:25:31;;;;;;;4.07;2.72;;;16.30;99.90;;;;;;5048270;28;20293;-31
2023/03/18 10:28:08;;;;;;;5.15;2.40;;;16.30;99.90;;;;;;5048201;28;20287;-31
2023/03/18 10:30:49;;;;;;;4.60;2.00;;;16.30;99.90;;;;;;5047635;28;20228;-31
2023/03/18 10:33:17;;;;;;;8.75;3.40;;;16.30;99.90;;;;;;5047696;28;20586;-32
2023/03/18 10:36:01;;;;;;;16.42;3.28;;;16.30;99.90;;;;;;5047823;28;20234;-31
2023/03/18 10:38:40;;;;;;;6.35;2.55;;;16.30;99.90;;;;;;5047682;28;20204;-31
2023/03/18 10:41:28;;;;;;;5.80;2.40;;;16.30;99.90;;;;;;5046167;28;20630;-31
2023/03/18 10:43:57;;;;;;;6.28;2.58;;;16.30;99.90;;;;;;5046448;28;20670;-31
2023/03/18 10:46:28;;;;;;;10.43;3.53;;;16.30;99.90;;;;;;5047459;28;20238;-31
2023/03/18 10:49:06;;;;;;;10.98;4.15;;;16.40;99.90;;;;;;5047391;28;20192;-31
2023/03/18 10:51:51;;;;;;;5.50;2.60;;;16.40;99.90;;;;;;5045620;28;20254;-31
2023/03/18 10:54:36;;;;;;;8.85;2.97;;;16.40;99.90;;;;;;5047148;28;20235;-31
2023/03/18 10:57:13;;;;;;;9.63;3.10;;;16.30;99.90;;;;;;5047225;28;20242;-31
2023/03/18 10:59:44;;;;;;;5.63;2.45;;;16.30;99.90;;;;;;5047197;28;20239;-31
2023/03/18 11:02:13;;;;;;;5.30;2.30;;;16.20;99.90;;;;;;5048106;28;20258;-31
2023/03/18 11:04:48;;;;;;;10.23;2.47;;;16.20;99.90;;;;;;5047476;28;20192;-31
2023/03/18 11:07:20;;;;;;;5.82;3.20;;;16.20;99.90;;;;;;5047601;28;20744;-31
2023/03/18 11:09:47;;;;;;;4.07;1.88;;;16.20;99.90;;;;;;5045737;28;20199;-31
2023/03/18 11:12:22;;;;;;;2.47;2.20;;;16.20;99.90;;;;;;5029672;28;20272;-31
2023/03/18 11:14:50;;;;;;;2.58;1.63;;;16.20;99.90;;;;;;5047374;28;20193;-31
2023/03/18 11:17:37;;;;;;;3.63;1.70;;;16.20;99.90;;;;;;5047280;28;20781;-31
2023/03/18 11:20:29;;;;;;;2.67;1.70;;;16.20;99.90;;;;;;5047381;28;20204;-31
2023/03/18 11:23:11;;;;;;;3.90;1.57;;;16.20;99.90;;;;;;5047532;28;20196;-31
2023/03/18 11:25:47;;;;;;;2.85;1.60;;;16.20;99.90;;;;;;5047065;28;20220;-31
2023/03/18 11:28:28;;;;;;;3.15;1.80;;;16.20;99.90;;;;;;5045400;28;20204;-31
2023/03/18 11:31:04;;;;;;;2.83;1.75;;;16.20;99.90;;;;;;5045058;28;20291;-32
2023/03/18 11:33:36;;;;;;;3.00;1.60;;;16.20;99.90;;;;;;5045129;28;20261;-32
2023/03/18 11:36:12;;;;;;;4.88;1.88;;;16.20;99.90;;;;;;5046913;28;20208;-32
2023/03/18 11:38:39;;;;;;;2.80;1.55;;;16.30;99.90;;;;;;5046826;28;20749;-32
2023/03/18 11:41:15;;;;;;;4.43;2.13;;;16.30;99.90;;;;;;5045539;28;20204;-32
2023/03/18 11:44:01;;;;;;;3.60;1.90;;;16.30;99.90;;;;;;5046416;28;20230;-32
2023/03/18 11:46:44;;;;;;;3.70;1.87;;;16.30;99.90;;;;;;5046018;28;20226;-32
2023/03/18 11:49:24;;;;;;;3.58;1.83;;;16.40;99.90;;;;;;5046249;28;20211;-31
2023/03/18 11:52:14;;;;;;;3.92;1.80;;;16.50;99.90;;;;;;5044610;28;20696;-31
2023/03/18 11:54:50;;;;;;;3.90;2.03;;;16.50;99.90;;;;;;5045533;28;20335;-32
2023/03/18 11:57:17;;;;;;;4.32;1.90;;;16.60;99.90;;;;;;5044360;28;20222;-32
2023/03/18 12:00:03;;;;;;;2.85;1.80;;;16.70;99.90;;;;;;5045810;28;20437;-31
2023/03/18 12:02:41;;;;;;;2.60;1.40;;;16.80;99.90;;;;;;5045632;28;20192;-31
2023/03/18 12:05:27;;;;;;;4.25;1.70;;;16.90;99.90;;;;;;5046106;28;20243;-32
2023/03/18 12:08:01;;;;;;;4.43;1.90;;;17.00;99.90;;;;;;5045736;28;20192;-32
2023/03/18 12:11:05;;;;;;;2.65;1.77;;;17.10;99.90;;;;;;5045407;28;20864;-31
2023/03/18 12:13:41;;;;;;;2.92;1.35;;;17.20;99.90;;;;;;5045469;28;20626;-32
2023/03/18 12:16:29;;;;;;;4.50;2.10;;;17.20;99.90;;;;;;5043963;28;20211;-32
2023/03/18 12:19:18;;;;;;;2.97;1.83;;;17.30;99.90;;;;;;5044089;28;20215;-32
2023/03/18 12:21:45;;;;;;;4.00;2.17;;;17.30;99.90;;;;;;5045847;28;20642;-32
2023/03/18 12:24:30;;;;;;;4.03;1.90;;;17.40;99.90;;;;;;5044339;28;20291;-32
2023/03/18 12:27:16;;;;;;;2.45;1.88;;;17.40;99.90;;;;;;5045739;28;20244;-32
2023/03/18 12:30:14;;;;;;;2.90;1.80;;;17.40;99.90;;;;;;5044707;28;20223;-32
2023/03/18 12:32:56;;;;;;;2.70;1.60;;;17.50;99.90;;;;;;5045911;28;20246;-31
2023/03/18 12:35:29;;;;;;;3.72;1.90;;;17.50;99.90;;;;;;5043554;28;20223;-32
2023/03/18 12:38:18;;;;;;;2.55;1.63;;;17.60;99.90;;;;;;5044382;28;20220;-32
2023/03/18 12:41:06;;;;;;;2.42;1.35;;;17.60;99.90;;;;;;5045421;28;20200;-32
2023/03/18 12:43:52;;;;;;;2.53;1.60;;;17.60;99.90;;;;;;5045152;28;20736;-31
2023/03/18 12:46:19;;;;;;;3.65;1.77;;;17.60;99.90;;;;;;5045226;28;20611;-32
2023/03/18 12:49:00;;;;;;;5.40;1.90;;;17.70;99.90;;;;;;5045346;28;20273;-32
2023/03/18 12:51:38;;;;;;;3.00;1.45;;;17.70;99.90;;;;;;5045253;28;20194;-32
2023/03/18 12:54:17;;;;;;;4.18;1.42;;;17.80;99.90;;;;;;5043506;28;20263;-33
2023/03/18 12:56:52;;;;;;;3.00;1.70;;;17.80;99.90;;;;;;5045462;28;20204;-32
2023/03/18 12:59:35;;;;;;;4.13;1.70;;;17.80;99.90;;;;;;5045212;28;20228;-32
2023/03/18 13:02:34;;;;;;;2.70;1.40;;;17.80;99.90;;;;;;5043806;28;20192;-31
2023/03/18 13:05:12;;;;;;;4.13;1.20;;;17.80;99.90;;;;;;5043487;28;20273;-31
2023/03/18 13:07:52;;;;;;;1.67;1.20;;;17.80;99.90;;;;;;5045044;28;20196;-31
2023/03/18 13:10:22;;;;;;;1.92;1.30;;;17.80;99.90;;;;;;5048944;28;20199;-31
2023/03/18 13:13:02;;;;;;;2.97;1.60;;;17.80;99.90;;;;;;5049576;28;20239;-31